sensor_id;sensor_type;location;lat;lon;timestamp;pressure;altitude;pressure_sealevel;temperature;humidity
62710;BME280;48770;51.624;5.886;2024-03-25T00:01:29;100633.38;;;19.24;41.87
62710;BME280;48770;51.624;5.886;2024-03-25T00:03:54;100632.44;;;19.20;41.95
62710;BME280;48770;51.624;5.886;2024-03-25T00:06:20;100625.28;;;19.19;41.88
62710;BME280;48770;51.624;5.886;2024-03-25T00:08:45;100625.28;;;19.19;42.02
62710;BME280;48770;51.624;5.886;2024-03-25T00:11:10;100620.91;;;19.18;41.71
62710;BME280;48770;51.624;5.886;2024-03-25T00:13:36;100627.25;;;19.19;41.88
62710;BME280;48770;51.624;5.886;2024-03-25T00:16:01;100622.06;;;19.17;42.02
62710;BME280;48770;51.624;5.886;2024-03-25T00:18:26;100616.06;;;19.15;42.00
62710;BME280;48770;51.624;5.886;2024-03-25T00:20:52;100618.38;;;19.13;42.08
62710;BME280;48770;51.624;5.886;2024-03-25T00:23:17;100624.38;;;19.15;41.89
62710;BME280;48770;51.624;5.886;2024-03-25T00:25:43;100627.84;;;19.12;42.22
62710;BME280;48770;51.624;5.886;2024-03-25T00:28:08;100623.44;;;19.11;42.14
62710;BME280;48770;51.624;5.886;2024-03-25T00:30:33;100627.38;;;19.10;41.96
62710;BME280;48770;51.624;5.886;2024-03-25T00:32:59;100623.44;;;19.11;41.97
62710;BME280;48770;51.624;5.886;2024-03-25T00:35:25;100627.38;;;19.10;42.06
62710;BME280;48770;51.624;5.886;2024-03-25T00:37:50;100618.25;;;19.09;42.01
62710;BME280;48770;51.624;5.886;2024-03-25T00:40:15;100616.97;;;19.07;42.01
62710;BME280;48770;51.624;5.886;2024-03-25T00:42:41;100617.78;;;19.07;42.01
62710;BME280;48770;51.624;5.886;2024-03-25T00:45:06;100619.75;;;19.07;42.05
62710;BME280;48770;51.624;5.886;2024-03-25T00:47:32;100616.16;;;19.06;41.93
62710;BME280;48770;51.624;5.886;2024-03-25T00:49:58;100619.75;;;19.07;41.94
62710;BME280;48770;51.624;5.886;2024-03-25T00:52:23;100616.97;;;19.07;42.15
62710;BME280;48770;51.624;5.886;2024-03-25T00:54:49;100613.75;;;19.05;41.97
62710;BME280;48770;51.624;5.886;2024-03-25T00:57:14;100615.72;;;19.04;42.08
62710;BME280;48770;51.624;5.886;2024-03-25T00:59:39;100611.22;;;19.00;42.05
62710;BME280;48770;51.624;5.886;2024-03-25T01:02:05;100615.59;;;19.01;41.92
62710;BME280;48770;51.624;5.886;2024-03-25T01:04:30;100608.91;;;19.02;41.87
62710;BME280;48770;51.624;5.886;2024-03-25T01:06:55;100609.25;;;19.00;42.02
62710;BME280;48770;51.624;5.886;2024-03-25T01:09:21;100607.28;;;19.01;42.00
62710;BME280;48770;51.624;5.886;2024-03-25T01:11:47;100612.34;;;18.99;42.02
62710;BME280;48770;51.624;5.886;2024-03-25T01:14:12;100615.44;;;18.97;42.08
62710;BME280;48770;51.624;5.886;2024-03-25T01:16:37;100622.97;;;18.97;42.07
62710;BME280;48770;51.624;5.886;2024-03-25T01:19:03;100622.97;;;18.97;42.04
62710;BME280;48770;51.624;5.886;2024-03-25T01:21:28;100621.69;;;18.94;42.05
62710;BME280;48770;51.624;5.886;2024-03-25T01:23:55;100624.47;;;18.94;41.96
62710;BME280;48770;51.624;5.886;2024-03-25T01:26:20;100628.38;;;18.93;42.01
62710;BME280;48770;51.624;5.886;2024-03-25T01:28:45;100628.84;;;18.95;41.91
62710;BME280;48770;51.624;5.886;2024-03-25T01:31:11;100629.19;;;18.94;42.10
62710;BME280;48770;51.624;5.886;2024-03-25T01:33:36;100623.19;;;18.92;42.15
62710;BME280;48770;51.624;5.886;2024-03-25T01:36:02;100629.53;;;18.92;42.08
62710;BME280;48770;51.624;5.886;2024-03-25T01:38:27;100620.41;;;18.92;41.94
62710;BME280;48770;51.624;5.886;2024-03-25T01:40:53;100626.75;;;18.92;41.89
62710;BME280;48770;51.624;5.886;2024-03-25T01:43:18;100627.13;;;18.91;41.95
62710;BME280;48770;51.624;5.886;2024-03-25T01:45:44;100629.06;;;18.90;41.78
62710;BME280;48770;51.624;5.886;2024-03-25T01:48:10;100621.91;;;18.89;41.85
62710;BME280;48770;51.624;5.886;2024-03-25T01:50:39;100626.66;;;18.89;41.95
62710;BME280;48770;51.624;5.886;2024-03-25T01:53:05;100623.53;;;18.90;41.75
62710;BME280;48770;51.624;5.886;2024-03-25T01:55:34;100630.56;;;18.88;41.83
62710;BME280;48770;51.624;5.886;2024-03-25T01:58:00;100627.81;;;18.88;41.88
62710;BME280;48770;51.624;5.886;2024-03-25T02:00:26;100641.66;;;18.88;41.99
62710;BME280;48770;51.624;5.886;2024-03-25T02:02:52;100640.03;;;18.87;41.80
62710;BME280;48770;51.624;5.886;2024-03-25T02:05:18;100642.00;;;18.86;41.99
62710;BME280;48770;51.624;5.886;2024-03-25T02:07:44;100636.81;;;18.85;42.02
62710;BME280;48770;51.624;5.886;2024-03-25T02:10:10;100633.69;;;18.86;41.90
62710;BME280;48770;51.624;5.886;2024-03-25T02:12:36;100635.19;;;18.84;41.79
62710;BME280;48770;51.624;5.886;2024-03-25T02:15:02;100631.25;;;18.85;41.93
62710;BME280;48770;51.624;5.886;2024-03-25T02:17:27;100631.25;;;18.85;41.86
62710;BME280;48770;51.624;5.886;2024-03-25T02:19:52;100630.47;;;18.84;42.00
62710;BME280;48770;51.624;5.886;2024-03-25T02:22:18;100624.09;;;18.84;41.92
62710;BME280;48770;51.624;5.886;2024-03-25T02:24:45;100629.66;;;18.84;42.02
62710;BME280;48770;51.624;5.886;2024-03-25T02:27:12;100625.94;;;18.79;42.06
62710;BME280;48770;51.624;5.886;2024-03-25T02:29:40;100627.56;;;18.81;41.75
62710;BME280;48770;51.624;5.886;2024-03-25T02:32:06;100630.81;;;18.83;41.80
62710;BME280;48770;51.624;5.886;2024-03-25T02:34:32;100628.38;;;18.81;41.97
62710;BME280;48770;51.624;5.886;2024-03-25T02:36:58;100633.09;;;18.81;41.70
62710;BME280;48770;51.624;5.886;2024-03-25T02:39:24;100632.75;;;18.82;41.83
62710;BME280;48770;51.624;5.886;2024-03-25T02:41:49;100631.50;;;18.79;41.94
62710;BME280;48770;51.624;5.886;2024-03-25T02:44:15;100632.31;;;18.80;41.74
62710;BME280;48770;51.624;5.886;2024-03-25T02:46:41;100627.44;;;18.77;41.76
62710;BME280;48770;51.624;5.886;2024-03-25T02:49:06;100632.66;;;18.78;41.92
62710;BME280;48770;51.624;5.886;2024-03-25T02:51:31;100629.06;;;18.78;41.65
62710;BME280;48770;51.624;5.886;2024-03-25T02:53:57;100633.47;;;18.79;41.70
62710;BME280;48770;51.624;5.886;2024-03-25T02:56:22;100631.84;;;18.78;41.73
62710;BME280;48770;51.624;5.886;2024-03-25T02:58:47;100624.69;;;18.77;41.67
62710;BME280;48770;51.624;5.886;2024-03-25T03:01:13;100626.63;;;18.76;41.74
62710;BME280;48770;51.624;5.886;2024-03-25T03:03:38;100621.44;;;18.75;41.79
62710;BME280;48770;51.624;5.886;2024-03-25T03:06:03;100612.78;;;18.76;41.75
62710;BME280;48770;51.624;5.886;2024-03-25T03:08:29;100621.09;;;18.76;41.70
62710;BME280;48770;51.624;5.886;2024-03-25T03:10:54;100618.69;;;18.75;41.76
62710;BME280;48770;51.624;5.886;2024-03-25T03:13:19;100613.78;;;18.72;41.65
62710;BME280;48770;51.624;5.886;2024-03-25T03:15:45;100616.91;;;18.70;41.89
62710;BME280;48770;51.624;5.886;2024-03-25T03:18:11;100608.59;;;18.70;41.81
62710;BME280;48770;51.624;5.886;2024-03-25T03:20:36;100616.56;;;18.72;41.99
62710;BME280;48770;51.624;5.886;2024-03-25T03:23:01;100611.84;;;18.72;41.79
62710;BME280;48770;51.624;5.886;2024-03-25T03:25:27;100611.84;;;18.72;41.75
62710;BME280;48770;51.624;5.886;2024-03-25T03:27:54;100611.84;;;18.72;41.75
62710;BME280;48770;51.624;5.886;2024-03-25T03:30:20;100607.44;;;18.71;41.70
62710;BME280;48770;51.624;5.886;2024-03-25T03:32:45;100614.16;;;18.70;41.85
62710;BME280;48770;51.624;5.886;2024-03-25T03:35:11;100604.22;;;18.69;41.85
62710;BME280;48770;51.624;5.886;2024-03-25T03:37:36;100607.00;;;18.69;41.89
62710;BME280;48770;51.624;5.886;2024-03-25T03:40:01;100601.44;;;18.69;41.80
62710;BME280;48770;51.624;5.886;2024-03-25T03:42:27;100603.75;;;18.67;41.76
62710;BME280;48770;51.624;5.886;2024-03-25T03:44:52;100600.97;;;18.67;41.74
62710;BME280;48770;51.624;5.886;2024-03-25T03:47:17;100603.75;;;18.67;41.87
62710;BME280;48770;51.624;5.886;2024-03-25T03:49:42;100598.22;;;18.67;41.94
62710;BME280;48770;51.624;5.886;2024-03-25T03:52:08;100597.75;;;18.65;41.78
62710;BME280;48770;51.624;5.886;2024-03-25T03:54:33;100598.56;;;18.66;41.78
62710;BME280;48770;51.624;5.886;2024-03-25T03:56:58;100599.38;;;18.66;41.73
62710;BME280;48770;51.624;5.886;2024-03-25T03:59:23;100604.09;;;18.66;41.76
62710;BME280;48770;51.624;5.886;2024-03-25T04:01:49;100607.69;;;18.66;41.74
62710;BME280;48770;51.624;5.886;2024-03-25T04:04:14;100599.38;;;18.66;41.77
62710;BME280;48770;51.624;5.886;2024-03-25T04:06:39;100605.59;;;18.63;41.88
62710;BME280;48770;51.624;5.886;2024-03-25T04:09:06;100609.16;;;18.64;41.89
62710;BME280;48770;51.624;5.886;2024-03-25T04:11:34;100603.97;;;18.62;42.06
62710;BME280;48770;51.624;5.886;2024-03-25T04:14:00;100602.81;;;18.63;41.88
62710;BME280;48770;51.624;5.886;2024-03-25T04:16:25;100602.03;;;18.63;41.85
62710;BME280;48770;51.624;5.886;2024-03-25T04:18:51;100600.38;;;18.62;41.91
62710;BME280;48770;51.624;5.886;2024-03-25T04:21:16;100594.38;;;18.60;41.78
62710;BME280;48770;51.624;5.886;2024-03-25T04:23:42;100603.97;;;18.62;41.93
62710;BME280;48770;51.624;5.886;2024-03-25T04:26:08;100603.13;;;18.62;41.83
62710;BME280;48770;51.624;5.886;2024-03-25T04:28:33;100600.38;;;18.62;41.70
62710;BME280;48770;51.624;5.886;2024-03-25T04:30:59;100610.63;;;18.61;41.77
62710;BME280;48770;51.624;5.886;2024-03-25T04:33:24;100601.88;;;18.59;41.64
62710;BME280;48770;51.624;5.886;2024-03-25T04:35:49;100603.03;;;18.58;41.79
62710;BME280;48770;51.624;5.886;2024-03-25T04:38:18;100604.63;;;18.59;41.71
62710;BME280;48770;51.624;5.886;2024-03-25T04:40:43;100601.53;;;18.61;41.71
62710;BME280;48770;51.624;5.886;2024-03-25T04:43:11;100602.69;;;18.60;41.71
62710;BME280;48770;51.624;5.886;2024-03-25T04:45:37;100599.09;;;18.59;41.75
62710;BME280;48770;51.624;5.886;2024-03-25T04:48:02;100603.03;;;18.58;41.80
62710;BME280;48770;51.624;5.886;2024-03-25T04:50:28;100604.97;;;18.58;41.82
62710;BME280;48770;51.624;5.886;2024-03-25T04:52:53;100614.56;;;18.60;41.70
62710;BME280;48770;51.624;5.886;2024-03-25T04:55:18;100616.88;;;18.58;41.57
62710;BME280;48770;51.624;5.886;2024-03-25T04:57:44;100616.06;;;18.58;41.65
62710;BME280;48770;51.624;5.886;2024-03-25T05:00:09;100612.47;;;18.57;41.55
62710;BME280;48770;51.624;5.886;2024-03-25T05:02:38;100606.47;;;18.55;41.70
62710;BME280;48770;51.624;5.886;2024-03-25T05:05:04;100614.78;;;18.55;41.71
62710;BME280;48770;51.624;5.886;2024-03-25T05:07:29;100608.09;;;18.56;41.62
62710;BME280;48770;51.624;5.886;2024-03-25T05:09:54;100613.63;;;18.56;41.62
62710;BME280;48770;51.624;5.886;2024-03-25T05:12:21;100610.06;;;18.56;41.48
62710;BME280;48770;51.624;5.886;2024-03-25T05:14:46;100609.94;;;18.52;41.61
62710;BME280;48770;51.624;5.886;2024-03-25T05:17:12;100619.06;;;18.53;41.49
62710;BME280;48770;51.624;5.886;2024-03-25T05:19:37;100619.84;;;18.53;41.55
62710;BME280;48770;51.624;5.886;2024-03-25T05:22:02;100623.09;;;18.55;41.59
62710;BME280;48770;51.624;5.886;2024-03-25T05:24:28;100619.84;;;18.53;41.63
62710;BME280;48770;51.624;5.886;2024-03-25T05:26:53;100620.19;;;18.52;41.72
62710;BME280;48770;51.624;5.886;2024-03-25T05:29:18;100623.78;;;18.52;41.60
62710;BME280;48770;51.624;5.886;2024-03-25T05:31:59;100634.03;;;18.52;41.55
62710;BME280;48770;51.624;5.886;2024-03-25T05:34:25;100632.44;;;18.51;41.61
62710;BME280;48770;51.624;5.886;2024-03-25T05:36:51;100626.09;;;18.50;41.72
62710;BME280;48770;51.624;5.886;2024-03-25T05:39:16;100633.25;;;18.51;41.47
62710;BME280;48770;51.624;5.886;2024-03-25T05:41:41;100636.34;;;18.49;41.91
62710;BME280;48770;51.624;5.886;2024-03-25T05:44:07;100639.59;;;18.52;41.57
62710;BME280;48770;51.624;5.886;2024-03-25T05:46:32;100631.63;;;18.50;41.46
62710;BME280;48770;51.624;5.886;2024-03-25T05:49:01;100637.16;;;18.50;41.48
62710;BME280;48770;51.624;5.886;2024-03-25T05:51:26;100641.88;;;18.49;41.64
62710;BME280;48770;51.624;5.886;2024-03-25T05:53:52;100633.91;;;18.48;41.59
62710;BME280;48770;51.624;5.886;2024-03-25T05:56:17;100644.50;;;18.46;41.63
62710;BME280;48770;51.624;5.886;2024-03-25T05:58:42;100634.72;;;18.48;41.70
62710;BME280;48770;51.624;5.886;2024-03-25T06:01:07;100635.53;;;18.49;41.40
62710;BME280;48770;51.624;5.886;2024-03-25T06:03:33;100635.53;;;18.49;41.67
62710;BME280;48770;51.624;5.886;2024-03-25T06:05:58;100630.00;;;18.49;41.45
62710;BME280;48770;51.624;5.886;2024-03-25T06:08:23;100630.66;;;18.46;41.65
62710;BME280;48770;51.624;5.886;2024-03-25T06:10:52;100626.75;;;18.47;41.56
62710;BME280;48770;51.624;5.886;2024-03-25T06:13:18;100627.88;;;18.46;41.44
62710;BME280;48770;51.624;5.886;2024-03-25T06:15:43;100625.63;;;18.48;41.64
62710;BME280;48770;51.624;5.886;2024-03-25T06:18:09;100625.47;;;18.44;41.52
62710;BME280;48770;51.624;5.886;2024-03-25T06:20:34;100623.97;;;18.47;41.74
62710;BME280;48770;51.624;5.886;2024-03-25T06:22:59;100621.41;;;18.42;41.61
62710;BME280;48770;51.624;5.886;2024-03-25T06:25:25;100621.06;;;18.43;41.65
62710;BME280;48770;51.624;5.886;2024-03-25T06:27:50;100621.06;;;18.43;41.53
62710;BME280;48770;51.624;5.886;2024-03-25T06:30:15;100615.19;;;18.45;41.33
62710;BME280;48770;51.624;5.886;2024-03-25T06:32:59;100615.19;;;18.45;41.18
62710;BME280;48770;51.624;5.886;2024-03-25T06:35:44;100617.16;;;18.44;41.49
62710;BME280;48770;51.624;5.886;2024-03-25T06:38:10;100619.94;;;18.44;41.42
62710;BME280;48770;51.624;5.886;2024-03-25T06:40:35;100618.66;;;18.42;41.44
62710;BME280;48770;51.624;5.886;2024-03-25T06:43:01;100616.34;;;18.44;41.39
62710;BME280;48770;51.624;5.886;2024-03-25T06:45:26;100611.63;;;18.44;41.39
62710;BME280;48770;51.624;5.886;2024-03-25T06:47:52;100614.72;;;18.43;41.40
62710;BME280;48770;51.624;5.886;2024-03-25T06:50:17;100612.44;;;18.45;41.39
62710;BME280;48770;51.624;5.886;2024-03-25T06:52:42;100616.81;;;18.46;41.66
62710;BME280;48770;51.624;5.886;2024-03-25T06:55:08;100616.34;;;18.44;41.56
62710;BME280;48770;51.624;5.886;2024-03-25T06:57:33;100616.34;;;18.44;41.38
62710;BME280;48770;51.624;5.886;2024-03-25T06:59:59;100613.59;;;18.44;41.36
62710;BME280;48770;51.624;5.886;2024-03-25T07:02:24;100616.69;;;18.42;41.27
62710;BME280;48770;51.624;5.886;2024-03-25T07:04:49;100610.81;;;18.44;41.29
62710;BME280;48770;51.624;5.886;2024-03-25T07:07:15;100615.19;;;18.45;41.38
62710;BME280;48770;51.624;5.886;2024-03-25T07:09:40;100616.69;;;18.42;41.54
62710;BME280;48770;51.624;5.886;2024-03-25T07:12:06;100617.50;;;18.43;41.25
62710;BME280;48770;51.624;5.886;2024-03-25T07:14:31;100620.97;;;18.40;41.49
62710;BME280;48770;51.624;5.886;2024-03-25T07:16:57;100624.19;;;18.42;41.54
62710;BME280;48770;51.624;5.886;2024-03-25T07:19:22;100613.13;;;18.42;41.49
62710;BME280;48770;51.624;5.886;2024-03-25T07:21:48;100614.72;;;18.43;41.32
62710;BME280;48770;51.624;5.886;2024-03-25T07:24:13;100613.94;;;18.42;41.26
62710;BME280;48770;51.624;5.886;2024-03-25T07:26:38;100612.31;;;18.41;41.51
62710;BME280;48770;51.624;5.886;2024-03-25T07:29:03;100607.25;;;18.43;41.38
62710;BME280;48770;51.624;5.886;2024-03-25T07:31:29;100612.44;;;18.45;41.33
62710;BME280;48770;51.624;5.886;2024-03-25T07:33:54;100609.19;;;18.43;41.32
62710;BME280;48770;51.624;5.886;2024-03-25T07:36:19;100610.47;;;18.45;41.46
62710;BME280;48770;51.624;5.886;2024-03-25T07:38:44;100613.25;;;18.45;41.38
62710;BME280;48770;51.624;5.886;2024-03-25T07:41:10;100615.53;;;18.43;41.36
62710;BME280;48770;51.624;5.886;2024-03-25T07:43:35;100608.38;;;18.42;41.32
62710;BME280;48770;51.624;5.886;2024-03-25T07:46:00;100611.97;;;18.43;41.39
62710;BME280;48770;51.624;5.886;2024-03-25T07:48:26;100607.25;;;18.43;41.25
62710;BME280;48770;51.624;5.886;2024-03-25T07:50:51;100610.81;;;18.44;41.29
62710;BME280;48770;51.624;5.886;2024-03-25T07:53:16;100611.50;;;18.41;41.30
62710;BME280;48770;51.624;5.886;2024-03-25T07:55:41;100614.50;;;18.36;41.67
62710;BME280;48770;51.624;5.886;2024-03-25T07:58:07;100610.56;;;18.37;41.71
62710;BME280;48770;51.624;5.886;2024-03-25T08:00:32;100614.28;;;18.41;41.51
62710;BME280;48770;51.624;5.886;2024-03-25T08:02:59;100607.13;;;18.40;41.18
62710;BME280;48770;51.624;5.886;2024-03-25T08:05:24;100610.00;;;18.43;41.41
62710;BME280;48770;51.624;5.886;2024-03-25T08:07:50;100614.28;;;18.41;41.41
62710;BME280;48770;51.624;5.886;2024-03-25T08:10:15;100622.22;;;18.42;41.30
62710;BME280;48770;51.624;5.886;2024-03-25T08:12:40;100624.19;;;18.42;41.30
62710;BME280;48770;51.624;5.886;2024-03-25T08:15:06;100614.72;;;18.43;41.48
62710;BME280;48770;51.624;5.886;2024-03-25T08:17:33;100624.66;;;18.44;41.32
62710;BME280;48770;51.624;5.886;2024-03-25T08:19:58;100621.06;;;18.43;41.49
62710;BME280;48770;51.624;5.886;2024-03-25T08:22:24;100623.72;;;18.40;41.51
62710;BME280;48770;51.624;5.886;2024-03-25T08:24:49;100627.31;;;18.40;41.54
62710;BME280;48770;51.624;5.886;2024-03-25T08:27:14;100624.19;;;18.42;41.57
62710;BME280;48770;51.624;5.886;2024-03-25T08:29:40;100622.91;;;18.39;41.51
62710;BME280;48770;51.624;5.886;2024-03-25T08:32:06;100626.84;;;18.38;41.76
62710;BME280;48770;51.624;5.886;2024-03-25T08:34:31;100625.56;;;18.36;41.77
62710;BME280;48770;51.624;5.886;2024-03-25T08:36:56;100629.25;;;18.40;41.76
62710;BME280;48770;51.624;5.886;2024-03-25T08:39:22;100628.56;;;18.43;41.77
62710;BME280;48770;51.624;5.886;2024-03-25T08:41:47;100624.19;;;18.42;41.48
62710;BME280;48770;51.624;5.886;2024-03-25T08:44:13;100624.41;;;18.37;41.86
62710;BME280;48770;51.624;5.886;2024-03-25T08:46:39;100625.56;;;18.36;41.77
62710;BME280;48770;51.624;5.886;2024-03-25T08:49:04;100619.22;;;18.35;41.94
62710;BME280;48770;51.624;5.886;2024-03-25T08:51:29;100618.41;;;18.35;41.85
62710;BME280;48770;51.624;5.886;2024-03-25T08:53:55;100622.09;;;18.39;41.76
62710;BME280;48770;51.624;5.886;2024-03-25T08:56:20;100614.94;;;18.38;41.87
62710;BME280;48770;51.624;5.886;2024-03-25T08:58:45;100617.03;;;18.41;41.51
62710;BME280;48770;51.624;5.886;2024-03-25T09:01:11;100612.19;;;18.38;41.91
62710;BME280;48770;51.624;5.886;2024-03-25T09:03:39;100608.03;;;18.32;42.00
62710;BME280;48770;51.624;5.886;2024-03-25T09:06:05;100606.53;;;18.34;41.90
62710;BME280;48770;51.624;5.886;2024-03-25T09:08:32;100605.03;;;18.37;41.92
62710;BME280;48770;51.624;5.886;2024-03-25T09:11:17;100608.25;;;18.39;41.62
62710;BME280;48770;51.624;5.886;2024-03-25T09:13:43;100607.13;;;18.40;41.62
62710;BME280;48770;51.624;5.886;2024-03-25T09:16:08;100610.47;;;18.45;41.63
62710;BME280;48770;51.624;5.886;2024-03-25T09:18:33;100606.09;;;18.44;41.61
62710;BME280;48770;51.624;5.886;2024-03-25T09:20:58;100599.75;;;18.44;41.63
62710;BME280;48770;51.624;5.886;2024-03-25T09:23:24;100602.72;;;18.39;41.83
62710;BME280;48770;51.624;5.886;2024-03-25T09:25:53;100605.03;;;18.37;41.84
62710;BME280;48770;51.624;5.886;2024-03-25T09:28:18;100601.91;;;18.38;41.96
62710;BME280;48770;51.624;5.886;2024-03-25T09:30:44;100598.34;;;18.38;41.72
62710;BME280;48770;51.624;5.886;2024-03-25T09:33:09;100599.63;;;18.40;41.89
62710;BME280;48770;51.624;5.886;2024-03-25T09:35:34;100589.81;;;18.43;41.60
62710;BME280;48770;51.624;5.886;2024-03-25T09:37:59;100592.13;;;18.41;41.81
62710;BME280;48770;51.624;5.886;2024-03-25T09:40:25;100583.81;;;18.41;41.63
62710;BME280;48770;51.624;5.886;2024-03-25T09:42:56;100581.50;;;18.43;41.79
62710;BME280;48770;51.624;5.886;2024-03-25T09:45:24;100578.50;;;18.36;42.10
62710;BME280;48770;51.624;5.886;2024-03-25T09:47:51;100583.81;;;18.41;41.83
62710;BME280;48770;51.624;5.886;2024-03-25T09:50:16;100580.72;;;18.42;41.99
62710;BME280;48770;51.624;5.886;2024-03-25T09:52:45;100578.41;;;18.44;41.63
62710;BME280;48770;51.624;5.886;2024-03-25T09:55:10;100581.63;;;18.46;41.71
62710;BME280;48770;51.624;5.886;2024-03-25T09:57:36;100578.06;;;18.46;41.84
62710;BME280;48770;51.624;5.886;2024-03-25T10:00:04;100569.16;;;18.40;41.81
62710;BME280;48770;51.624;5.886;2024-03-25T10:02:30;100562.00;;;18.39;41.88
62710;BME280;48770;51.624;5.886;2024-03-25T10:04:55;100562.81;;;18.40;41.71
62710;BME280;48770;51.624;5.886;2024-03-25T10:07:22;100560.97;;;18.44;41.75
62710;BME280;48770;51.624;5.886;2024-03-25T10:09:49;100552.22;;;18.42;41.84
62710;BME280;48770;51.624;5.886;2024-03-25T10:12:14;100548.75;;;18.45;42.02
62710;BME280;48770;51.624;5.886;2024-03-25T10:14:40;100548.09;;;18.48;41.76
62710;BME280;48770;51.624;5.886;2024-03-25T10:17:06;100546.13;;;18.48;41.79
62710;BME280;48770;51.624;5.886;2024-03-25T10:19:33;100542.75;;;18.43;41.89
62710;BME280;48770;51.624;5.886;2024-03-25T10:22:17;100540.00;;;18.43;41.99
62710;BME280;48770;51.624;5.886;2024-03-25T10:24:44;100545.19;;;18.44;41.96
62710;BME280;48770;51.624;5.886;2024-03-25T10:27:20;100536.53;;;18.46;42.02
62710;BME280;48770;51.624;5.886;2024-03-25T10:29:46;100538.16;;;18.47;41.91
62710;BME280;48770;51.624;5.886;2024-03-25T10:32:13;100538.28;;;18.51;41.89
62710;BME280;48770;51.624;5.886;2024-03-25T10:34:39;100528.72;;;18.48;41.59
62710;BME280;48770;51.624;5.886;2024-03-25T10:37:08;100521.81;;;18.54;41.97
62710;BME280;48770;51.624;5.886;2024-03-25T10:39:43;100525.25;;;18.51;41.86
62710;BME280;48770;51.624;5.886;2024-03-25T10:42:13;100517.75;;;18.52;41.77
62710;BME280;48770;51.624;5.886;2024-03-25T10:44:39;100519.25;;;18.49;41.84
62710;BME280;48770;51.624;5.886;2024-03-25T10:47:05;100512.44;;;18.46;42.12
62710;BME280;48770;51.624;5.886;2024-03-25T10:49:45;100507.50;;;18.52;42.10
62710;BME280;48770;51.624;5.886;2024-03-25T10:52:14;100508.75;;;18.55;41.83
62710;BME280;48770;51.624;5.886;2024-03-25T10:54:40;100499.41;;;18.59;41.74
62710;BME280;48770;51.624;5.886;2024-03-25T10:57:07;100492.72;;;18.60;41.66
62710;BME280;48770;51.624;5.886;2024-03-25T10:59:35;100485.56;;;18.59;41.70
62710;BME280;48770;51.624;5.886;2024-03-25T11:02:04;100482.81;;;18.59;41.64
62710;BME280;48770;51.624;5.886;2024-03-25T11:04:30;100483.25;;;18.61;41.86
62710;BME280;48770;51.624;5.886;2024-03-25T11:07:09;100477.41;;;18.63;41.72
62710;BME280;48770;51.624;5.886;2024-03-25T11:09:34;100484.06;;;18.62;41.80
62710;BME280;48770;51.624;5.886;2024-03-25T11:11:59;100490.31;;;18.59;41.89
62710;BME280;48770;51.624;5.886;2024-03-25T11:14:25;100485.56;;;18.59;41.85
62710;BME280;48770;51.624;5.886;2024-03-25T11:16:52;100483.63;;;18.60;42.02
62710;BME280;48770;51.624;5.886;2024-03-25T11:19:18;100479.56;;;18.57;42.03
62710;BME280;48770;51.624;5.886;2024-03-25T11:21:43;100472.78;;;18.55;42.05
62710;BME280;48770;51.624;5.886;2024-03-25T11:24:09;100475.19;;;18.56;42.13
62710;BME280;48770;51.624;5.886;2024-03-25T11:26:34;100474.16;;;18.61;41.76
62710;BME280;48770;51.624;5.886;2024-03-25T11:29:02;100472.69;;;18.63;41.88
62710;BME280;48770;51.624;5.886;2024-03-25T11:31:28;100467.25;;;18.67;41.67
62710;BME280;48770;51.624;5.886;2024-03-25T11:33:54;100460.56;;;18.68;41.64
62710;BME280;48770;51.624;5.886;2024-03-25T11:36:21;100457.31;;;18.66;41.78
62710;BME280;48770;51.624;5.886;2024-03-25T11:39:01;100459.75;;;18.67;41.77
62710;BME280;48770;51.624;5.886;2024-03-25T11:41:31;100454.66;;;18.69;41.89
62710;BME280;48770;51.624;5.886;2024-03-25T11:43:57;100449.47;;;18.68;41.71
62710;BME280;48770;51.624;5.886;2024-03-25T11:46:25;100447.97;;;18.70;41.81
62710;BME280;48770;51.624;5.886;2024-03-25T11:48:50;100451.19;;;18.72;41.81
62710;BME280;48770;51.624;5.886;2024-03-25T11:51:19;100446.16;;;18.74;41.75
62710;BME280;48770;51.624;5.886;2024-03-25T11:53:44;100446.38;;;18.69;41.95
62710;BME280;48770;51.624;5.886;2024-03-25T11:56:14;100434.59;;;18.72;41.99
62710;BME280;48770;51.624;5.886;2024-03-25T11:58:39;100434.72;;;18.76;42.00
62710;BME280;48770;51.624;5.886;2024-03-25T12:01:05;100437.50;;;18.76;41.82
62710;BME280;48770;51.624;5.886;2024-03-25T12:03:30;100426.06;;;18.77;41.85
62710;BME280;48770;51.624;5.886;2024-03-25T12:05:56;100426.19;;;18.81;41.86
62710;BME280;48770;51.624;5.886;2024-03-25T12:08:23;100423.06;;;18.83;41.95
62710;BME280;48770;51.624;5.886;2024-03-25T12:10:51;100416.34;;;18.84;41.79
62710;BME280;48770;51.624;5.886;2024-03-25T12:13:37;100417.97;;;18.85;41.85
62710;BME280;48770;51.624;5.886;2024-03-25T12:16:06;100414.50;;;18.88;41.78
62710;BME280;48770;51.624;5.886;2024-03-25T12:18:33;100409.06;;;18.91;41.81
62710;BME280;48770;51.624;5.886;2024-03-25T12:20:58;100410.78;;;18.96;41.58
62710;BME280;48770;51.624;5.886;2024-03-25T12:23:29;100402.13;;;18.97;41.79
62710;BME280;48770;51.624;5.886;2024-03-25T12:25:54;100395.91;;;19.00;41.70
62710;BME280;48770;51.624;5.886;2024-03-25T12:28:19;100388.41;;;19.01;41.65
62710;BME280;48770;51.624;5.886;2024-03-25T12:30:49;100380.19;;;19.04;41.74
62710;BME280;48770;51.624;5.886;2024-03-25T12:33:16;100381.91;;;19.09;41.90
62710;BME280;48770;51.624;5.886;2024-03-25T12:35:45;100369.28;;;19.12;41.38
62710;BME280;48770;51.624;5.886;2024-03-25T12:38:24;100359.94;;;19.16;41.57
62710;BME280;48770;51.624;5.886;2024-03-25T12:40:49;100361.53;;;19.17;41.61
62710;BME280;48770;51.624;5.886;2024-03-25T12:43:15;100354.13;;;19.21;41.46
62710;BME280;48770;51.624;5.886;2024-03-25T12:45:41;100355.38;;;19.24;41.53